Impacts METAR Board
IDs:

KMSP - Minneapolis-St Paul, MN, US

Updated at: 0200 UTC 23 May 2018
Potential Impact None Slight Moderate High
Time 22/14Z 22/15Z 22/16Z 22/17Z 22/18Z 22/19Z 22/20Z 22/21Z 22/22Z 22/23Z 23/00Z 23/01Z 23/02Z
Temp62 63 65 68 70 73 73 73 75 75 74 73 71
Dewpt55 56 57 58 58 58 58 57 57 58 58 58 58
Altim30.06 30.08 30.08 30.08 30.06 30.04 30.04 30.03 30.03 30.02 30.02 30.02 30.02
VIS10 10 10 10 10 10 10 10 10 10 10 10 10
CIG15 18 18 22 -- 41 41 47 47 -- -- -- --
CoverOVCOVCOVCBKNSCTBKNOVCBKNBKNSCTFEWFEWSCT
FltCatMVFRMVFRMVFRMVFRVFRVFRVFRVFRVFRVFRVFRVFRVFR
WX--------------------------
WDir2002202000300001100150130120120
WSpd6 5 4 3 3 4 0 6 4 7 7 10 10
WGst-- -- -- -- -- -- -- -- -- -- -- -- --
Raw hourly METARs
KMSP 221353Z 20006KT 10SM BKN015 BKN022 OVC038 17/13 A3006 RMK AO2 SLP179 T01670128 $
KMSP 221453Z 22005KT 10SM OVC018 17/13 A3008 RMK AO2 SLP185 T01720133 51020 $
KMSP 221553Z 20004KT 10SM BKN018 OVC041 18/14 A3008 RMK AO2 SLP186 T01830139 $
KMSP 221653Z VRB03KT 10SM BKN022 20/14 A3008 RMK AO2 SLPNO T02000144 $
KMSP 221753Z 30003KT 10SM SCT024 SCT035 SCT250 21/14 A3006 RMK AO2 SLP176 T02110144 10222 20150 58007 $
KMSP 221853Z VRB04KT 10SM FEW032 BKN041 23/14 A3004 RMK AO2 SLP171 T02280144
KMSP 221953Z 00000KT 10SM OVC041 23/14 A3004 RMK AO2 SLP169 T02280144
KMSP 222053Z 11006KT 10SM BKN047 23/14 A3003 RMK AO2 SLP166 T02280139 56010
KMSP 222153Z COR VRB04 10SM BKN047 BKN250 24/14 A3003 RMK AO2 SLP165 T02390139
KMSP 222253Z 15007KT 10SM SCT055 24/14 A3002 RMK AO2 SLP165 T02390144
KMSP 222353Z 13007KT 10SM FEW055 FEW300 23/14 A3002 RMK AO2 SLP163 T02330144 10244 20206 58003
KMSP 230053Z 12010KT 10SM FEW300 23/14 A3002 RMK AO2 SLP162 T02280144
KMSP 230153Z 12010KT 10SM SCT300 22/14 A3002 RMK AO2 SLP165 T02170144



Page loaded:  02:59 UTC  |   07:59 PM Pacific  |   08:59 PM Mountain  |   09:59 PM Central  |   10:59 PM Eastern

 

ADVISORIES

FORECASTS

FORECASTS

OBSERVATIONS

USER TOOLS

ABOUT US